Silver Creek, Georgia
Current Conditions -  °F | °C
As of 6:53 PM on Saturday 22 Nov 2014 (Local Time) from KRMG Reporting Station
Broken Clouds Broken Clouds  
Wind Chill: 56°   Ceiling: 3700
Heat Index: 56°   Visibility: 10mi
Dew Point: 30°   Wind: 8mph
Humidity: 37%   Direction: 110°ESE
Pressure: 30.23"   Gusts: NA
Location:  34.15°N, 85.14°W
Report Text: KRMG 222353Z AUTO 11007KT 10SM BKN037 13/M01 A3023 RMK AO2 SLP237 T01331011 10167 20133 55004
Loading
Personal Weather Stations






























Interactive Weather Map New forecast layout! Learn more

10-Day Weather Forecast

Advertisements
Track Severe Weather on mobile